Time;durP1;ratioP1;P1;durP2;ratioP2;P2;SDS_P1;SDS_P2;PMS_P1;PMS_P2;Temp;Humidity;BMP_temperature;BMP_pressure;BME280_temperature;BME280_humidity;BME280_pressure;Samples;Min_cycle;Max_cycle;Signal;HPM_P1;HPM_P2
2022/11/22 00:01:25;;;;;;;37.40;20.70;;;;;;;2.12;70.70;99169.03;4924751;28;97335;-85
2022/11/22 00:03:50;;;;;;;36.47;20.50;;;;;;;1.89;70.56;99135.81;4917078;28;96869;-84
2022/11/22 00:06:15;;;;;;;31.73;20.27;;;;;;;2.03;70.74;99157.09;4925112;28;100477;-84
2022/11/22 00:08:41;;;;;;;35.93;20.77;;;;;;;1.94;70.97;99161.59;4906933;28;101141;-84
2022/11/22 00:11:06;;;;;;;27.73;17.93;;;;;;;1.96;71.19;99170.19;4917054;28;97242;-83
2022/11/22 00:13:32;;;;;;;33.93;20.13;;;;;;;1.80;71.35;99131.66;4913952;28;97456;-87
2022/11/22 00:16:02;;;;;;;29.00;18.43;;;;;;;1.86;71.76;99141.00;4928147;28;100962;-84
2022/11/22 00:18:28;;;;;;;33.57;20.83;;;;;;;1.87;71.90;99134.13;4938249;28;101794;-84
2022/11/22 00:20:54;;;;;;;38.67;20.47;;;;;;;1.87;72.18;99144.47;4914570;28;97128;-84
2022/11/22 00:23:19;;;;;;;35.33;21.00;;;;;;;1.93;71.49;99145.22;4915678;28;97099;-87
2022/11/22 00:25:45;;;;;;;38.43;22.30;;;;;;;1.97;71.75;99146.84;4932836;28;99771;-85
2022/11/22 00:28:11;;;;;;;38.13;22.63;;;;;;;1.76;72.02;99116.19;4937708;28;97857;-84
2022/11/22 00:30:36;;;;;;;38.43;21.43;;;;;;;1.86;72.31;99128.06;4930842;28;97276;-83
2022/11/22 00:33:02;;;;;;;38.60;21.53;;;;;;;1.90;72.27;99136.66;4912066;28;97406;-84
2022/11/22 00:35:29;;;;;;;35.20;21.63;;;;;;;1.85;72.59;99128.97;4934652;28;99923;-85
2022/11/22 00:37:54;;;;;;;37.70;22.33;;;;;;;1.94;72.20;99125.38;4937248;28;100883;-84
2022/11/22 00:40:20;;;;;;;36.80;20.83;;;;;;;1.81;72.45;99106.63;4931627;28;97064;-84
2022/11/22 00:42:45;;;;;;;36.87;22.47;;;;;;;1.94;72.52;99112.41;4952403;28;96649;-85
2022/11/22 00:45:11;;;;;;;35.60;20.40;;;;;;;1.62;72.98;99090.56;4917138;28;101446;-83
2022/11/22 00:47:36;;;;;;;31.57;19.13;;;;;;;1.80;73.16;99129.06;4954439;28;101176;-85
2022/11/22 00:50:02;;;;;;;28.47;18.43;;;;;;;1.71;73.48;99105.91;4936027;28;97361;-85
2022/11/22 00:52:28;;;;;;;32.33;19.27;;;;;;;1.96;72.61;99124.47;4940331;28;97656;-85
2022/11/22 00:54:53;;;;;;;31.13;18.87;;;;;;;1.91;72.78;99118.50;4936309;28;98003;-84
2022/11/22 00:57:19;;;;;;;32.63;17.77;;;;;;;1.71;73.17;99103.31;4914994;28;99982;-85
2022/11/22 00:59:44;;;;;;;30.30;17.67;;;;;;;1.71;73.62;99110.25;4936138;28;96772;-85
2022/11/22 01:02:10;;;;;;;26.73;16.13;;;;;;;1.68;74.07;99105.97;4928846;28;97113;-86
2022/11/22 01:04:35;;;;;;;27.43;17.10;;;;;;;1.75;73.60;99119.69;4917490;28;100085;-85
2022/11/22 01:07:01;;;;;;;28.87;16.80;;;;;;;1.63;73.58;99097.47;4908959;28;101121;-85
2022/11/22 01:09:27;;;;;;;29.10;17.77;;;;;;;1.92;72.93;99111.59;4923240;28;97318;-85
2022/11/22 01:11:53;;;;;;;28.43;17.87;;;;;;;1.74;73.60;99092.91;4937862;28;97072;-85
2022/11/22 01:14:18;;;;;;;31.93;18.67;;;;;;;1.88;73.56;99117.72;4940214;28;100245;-85
2022/11/22 01:16:44;;;;;;;29.60;19.03;;;;;;;1.84;73.93;99110.91;4941458;28;101150;-85
2022/11/22 01:19:09;;;;;;;33.03;19.40;;;;;;;1.81;73.35;99099.72;4923593;28;97091;-84
2022/11/22 01:21:35;;;;;;;32.77;19.33;;;;;;;2.02;73.25;99116.56;4942894;28;97326;-85
2022/11/22 01:24:00;;;;;;;37.27;21.43;;;;;;;2.04;73.34;99120.00;4942362;28;98958;-85
2022/11/22 01:26:26;;;;;;;31.77;19.77;;;;;;;1.96;73.42;99123.59;4936219;28;101549;-84
2022/11/22 01:28:51;;;;;;;38.87;22.57;;;;;;;1.98;72.97;99130.47;4940261;28;97097;-84
2022/11/22 01:31:17;;;;;;;35.00;20.53;;;;;;;1.74;74.23;99120.53;4914280;28;96857;-84
2022/11/22 01:33:42;;;;;;;34.03;19.20;;;;;;;1.65;74.81;99115.53;4928799;28;101153;-84
2022/11/22 01:36:08;;;;;;;35.13;20.67;;;;;;;1.80;73.87;99099.72;4911688;28;101339;-85
2022/11/22 01:38:33;;;;;;;32.77;20.63;;;;;;;1.64;74.14;99099.16;4949376;28;97256;-84
2022/11/22 01:40:59;;;;;;;32.67;18.10;;;;;;;1.60;74.62;99102.69;4935445;28;97166;-84
2022/11/22 01:43:26;;;;;;;32.10;19.10;;;;;;;1.55;75.16;99109.66;4936148;28;98044;-85
2022/11/22 01:45:53;;;;;;;34.20;19.33;;;;;;;1.58;74.90;99110.47;4923196;28;100281;-85
2022/11/22 01:48:37;;;;;;;27.43;17.50;;;;;;;1.42;74.99;99087.44;4936229;28;97384;-85
2022/11/22 01:51:14;;;;;;;34.33;19.07;;;;;;;1.28;75.02;99065.28;4940069;28;96786;-85
2022/11/22 01:53:40;;;;;;;29.27;18.20;;;;;;;1.52;75.12;99092.47;4916189;28;100052;-85
2022/11/22 01:56:12;;;;;;;31.93;19.53;;;;;;;1.39;75.26;99057.31;4910170;28;101520;-85
2022/11/22 01:58:37;;;;;;;;;;;;;;;1.55;75.29;99094.13;4935079;28;96982;-83
2022/11/22 02:01:03;;;;;;;30.27;17.17;;;;;;;1.53;75.54;99101.91;4936294;28;96818;-85
2022/11/22 02:03:30;;;;;;;45.20;21.37;;;;;;;1.34;75.25;99057.41;4935709;28;101492;-85
2022/11/22 02:05:56;;;;;;;33.03;19.70;;;;;;;1.28;75.86;99070.44;4933566;28;101185;-85
2022/11/22 02:08:27;;;;;;;33.27;19.67;;;;;;;1.50;75.64;99090.78;4940930;28;97759;-85
2022/11/22 02:10:54;;;;;;;29.83;18.07;;;;;;;1.33;76.04;99078.13;4923505;28;96778;-84
2022/11/22 02:13:21;;;;;;;33.57;18.50;;;;;;;1.44;75.39;99085.69;4923400;28;100815;-84
2022/11/22 02:15:47;;;;;;;32.47;18.53;;;;;;;1.43;75.79;99090.03;4918726;28;101675;-85
2022/11/22 02:18:13;;;;;;;30.73;19.20;;;;;;;1.17;76.10;99056.84;4919263;28;97392;-85
2022/11/22 02:20:38;;;;;;;35.97;19.43;;;;;;;1.24;75.73;99047.25;4922095;28;96853;-85
2022/11/22 02:23:25;;;;;;;29.37;17.47;;;;;;;1.34;75.94;99085.88;4917479;28;101688;-85
2022/11/22 02:25:53;;;;;;;29.00;17.13;;;;;;;1.44;75.89;99078.78;4950220;28;98526;-85
2022/11/22 02:28:19;;;;;;;31.50;16.93;;;;;;;1.35;76.11;99069.47;4934370;28;97149;-85
2022/11/22 02:30:44;;;;;;;35.23;18.70;;;;;;;1.23;75.46;99025.72;4915805;28;96909;-84
2022/11/22 02:33:10;;;;;;;33.10;18.07;;;;;;;1.44;75.51;99072.78;4932424;28;98161;-85
2022/11/22 02:35:36;;;;;;;32.53;17.40;;;;;;;1.21;76.13;99044.72;4929094;28;97631;-85
2022/11/22 02:38:03;;;;;;;29.00;17.20;;;;;;;1.23;76.64;99053.31;4934864;28;96832;-85
2022/11/22 02:40:41;;;;;;;34.00;18.27;;;;;;;1.28;76.27;99048.88;4931735;28;97436;-85
2022/11/22 02:43:12;;;;;;;35.87;19.83;;;;;;;1.42;75.65;99056.41;4941698;28;100945;-84
2022/11/22 02:45:38;;;;;;;34.90;19.93;;;;;;;1.41;75.87;99046.97;4938138;28;100753;-85
2022/11/22 02:48:14;;;;;;;32.57;19.27;;;;;;;1.40;76.38;99055.59;4925785;28;97172;-84
2022/11/22 02:50:40;;;;;;;37.23;20.70;;;;;;;1.49;75.58;99047.69;4910879;28;97359;-85
2022/11/22 02:53:06;;;;;;;31.27;17.23;;;;;;;1.32;76.42;99056.59;4921073;28;102035;-84
2022/11/22 02:55:32;;;;;;;34.47;20.13;;;;;;;1.22;76.63;99044.69;4917647;28;101123;-84
2022/11/22 02:57:57;;;;;;;42.50;22.07;;;;;;;1.40;75.95;99040.06;4935042;28;97321;-85
2022/11/22 03:00:23;;;;;;;37.63;19.27;;;;;;;1.08;76.43;99003.56;4919096;28;97124;-85
2022/11/22 03:02:49;;;;;;;46.30;21.73;;;;;;;1.28;76.19;99042.00;4917923;28;101218;-85
2022/11/22 03:05:15;;;;;;;36.70;20.23;;;;;;;1.28;76.54;99061.81;4917283;28;101840;-85
2022/11/22 03:07:40;;;;;;;31.20;17.53;;;;;;;1.26;76.99;99056.69;4948762;28;96772;-84
2022/11/22 03:10:06;;;;;;;33.10;17.13;;;;;;;1.16;77.12;99046.50;4930310;28;97787;-84
2022/11/22 03:12:32;;;;;;;31.67;18.63;;;;;;;1.22;77.00;99041.22;4926080;28;101259;-84
2022/11/22 03:14:57;;;;;;;30.83;18.53;;;;;;;1.30;77.02;99063.50;4917471;28;100940;-84
2022/11/22 03:17:23;;;;;;;43.43;21.83;;;;;;;1.44;76.22;99068.44;4956409;28;96766;-83
2022/11/22 03:19:48;;;;;;;36.50;19.60;;;;;;;1.19;76.27;99049.88;4941338;28;96940;-84
2022/11/22 03:22:13;;;;;;;37.17;20.97;;;;;;;1.32;76.56;99068.66;4925589;28;100178;-85
2022/11/22 03:24:39;;;;;;;34.90;19.07;;;;;;;1.21;76.64;99048.13;4934974;28;98316;-85
2022/11/22 03:27:05;;;;;;;36.90;20.47;;;;;;;1.24;76.46;99055.84;4931815;28;97606;-84
2022/11/22 03:29:30;;;;;;;36.30;19.70;;;;;;;1.12;76.87;99063.81;4917200;28;96841;-85
2022/11/22 03:31:55;;;;;;;34.93;19.90;;;;;;;1.10;77.71;99074.16;4908121;28;100377;-85
2022/11/22 03:34:21;;;;;;;38.07;19.37;;;;;;;1.10;77.39;99056.06;4917443;28;101282;-84
2022/11/22 03:36:46;;;;;;;39.60;21.60;;;;;;;1.08;77.52;99050.09;4933759;28;96752;-85
2022/11/22 03:39:12;;;;;;;41.20;20.73;;;;;;;1.16;77.61;99057.69;4932429;28;97028;-84
2022/11/22 03:41:37;;;;;;;37.10;20.50;;;;;;;1.15;77.45;99047.41;4934433;28;97489;-85
2022/11/22 03:44:03;;;;;;;41.37;21.60;;;;;;;1.21;77.04;99042.97;4936896;28;99781;-83
2022/11/22 03:46:28;;;;;;;58.83;21.33;;;;;;;1.10;77.22;99037.97;4935381;28;97144;-85
2022/11/22 03:48:54;;;;;;;40.77;21.97;;;;;;;1.04;76.82;99040.66;4918170;28;97254;-85
2022/11/22 03:51:19;;;;;;;41.73;22.07;;;;;;;1.06;77.39;99057.00;4917406;28;101851;-85
2022/11/22 03:53:45;;;;;;;44.70;22.63;;;;;;;1.04;77.18;99037.22;4933733;28;99855;-84
2022/11/22 03:56:10;;;;;;;40.40;21.37;;;;;;;1.08;77.21;99044.91;4917800;28;96795;-84
2022/11/22 03:58:36;;;;;;;56.10;23.03;;;;;;;1.16;77.45;99033.59;4934008;28;96870;-85
2022/11/22 04:01:02;;;;;;;46.93;22.87;;;;;;;1.05;77.04;99023.44;4915740;28;100372;-84
2022/11/22 04:03:27;;;;;;;48.30;24.83;;;;;;;1.04;77.32;99040.66;4930193;28;101163;-85
2022/11/22 04:05:53;;;;;;;47.47;24.27;;;;;;;0.76;77.63;99018.72;4945984;28;96774;-85
2022/11/22 04:08:18;;;;;;;49.83;24.27;;;;;;;0.96;77.53;99046.81;4950119;28;97093;-85
2022/11/22 04:10:44;;;;;;;43.67;23.57;;;;;;;0.68;77.81;99001.59;4917246;28;101433;-85
2022/11/22 04:13:09;;;;;;;46.30;25.87;;;;;;;0.91;77.71;99039.16;4916315;28;101013;-83
2022/11/22 04:15:35;;;;;;;45.17;24.40;;;;;;;0.92;77.53;99042.59;4931104;28;97138;-84
2022/11/22 04:18:01;;;;;;;50.63;22.40;;;;;;;0.95;78.14;99043.38;4916605;28;97680;-85
2022/11/22 04:23:20;;;;;;;48.73;24.60;;;;;;;0.74;77.75;98994.63;4945465;28;98367;-84
2022/11/22 04:25:51;;;;;;;51.53;23.83;;;;;;;0.97;78.21;99027.88;4923255;28;96753;-84
2022/11/22 04:28:20;;;;;;;48.95;23.02;;;;;;;0.99;77.61;99019.22;4929480;28;97041;-84
2022/11/22 04:33:30;;;;;;;44.17;23.63;;;;;;;1.00;77.42;99018.34;4945600;28;100136;-85
2022/11/22 04:35:55;;;;;;;66.87;24.13;;;;;;;1.01;77.48;99016.59;4934984;28;97232;-84
2022/11/22 04:38:21;;;;;;;55.40;24.30;;;;;;;0.77;77.70;98995.44;4938885;28;97942;-84
2022/11/22 04:40:47;;;;;;;47.33;22.73;;;;;;;0.89;77.71;99022.81;4929368;28;101426;-83
2022/11/22 04:46:08;;;;;;;41.40;21.30;;;;;;;0.93;78.45;99013.28;4938437;28;98027;-85
2022/11/22 04:48:34;;;;;;;45.13;22.10;;;;;;;0.95;78.34;99025.31;4933917;28;97244;-84
2022/11/22 04:53:44;;;;;;;63.67;23.47;;;;;;;1.05;78.03;99028.63;4937416;28;101518;-85
2022/11/22 04:56:10;;;;;;;61.00;24.53;;;;;;;0.97;78.19;99033.03;4940511;28;96959;-84
2022/11/22 04:58:36;;;;;;;53.27;23.80;;;;;;;0.93;79.29;99034.78;4914241;28;96899;-84
2022/11/22 05:01:01;;;;;;;47.97;24.77;;;;;;;0.98;78.87;99025.25;4912193;28;101165;-85
2022/11/22 05:03:27;;;;;;;79.87;25.00;;;;;;;1.05;78.86;99028.63;4935862;28;100975;-84
2022/11/22 05:05:52;;;;;;;53.63;25.27;;;;;;;1.10;78.53;99014.69;4924805;28;97004;-85
2022/11/22 05:08:19;;;;;;;61.63;24.90;;;;;;;0.81;79.00;98973.84;4934741;28;96805;-84
2022/11/22 05:10:56;;;;;;;59.93;24.93;;;;;;;1.05;78.63;99013.09;4936482;28;101814;-85
2022/11/22 05:13:26;;;;;;;58.80;24.03;;;;;;;0.95;79.15;99024.44;4922135;28;101588;-84
2022/11/22 05:15:52;;;;;;;62.80;26.70;;;;;;;1.03;79.12;99020.88;4951951;28;97072;-84
2022/11/22 05:18:18;;;;;;;46.33;21.60;;;;;;;0.88;79.64;99013.38;4926656;28;96897;-84
2022/11/22 05:20:44;;;;;;;63.03;23.83;;;;;;;1.01;79.67;99016.59;4931728;28;101684;-84
2022/11/22 05:25:53;;;;;;;54.57;24.70;;;;;;;1.05;79.68;99032.03;4937732;28;96814;-84
2022/11/22 05:28:19;;;;;;;57.90;24.57;;;;;;;1.24;79.08;99031.72;4928272;28;96812;-84
2022/11/22 05:30:44;;;;;;;59.00;26.30;;;;;;;1.21;79.20;99042.13;4952294;28;101142;-84
2022/11/22 05:33:10;;;;;;;51.00;23.37;;;;;;;1.28;78.10;99034.25;4936436;28;100371;-85
2022/11/22 05:35:35;;;;;;;53.83;25.30;;;;;;;1.09;79.01;99041.44;4954772;28;97247;-85
2022/11/22 05:38:01;;;;;;;50.57;23.60;;;;;;;1.13;79.46;99030.19;4935455;28;97900;-85
2022/11/22 05:40:26;;;;;;;58.13;25.53;;;;;;;1.08;79.15;98994.97;4936764;28;101421;-84
2022/11/22 05:42:52;;;;;;;55.57;24.93;;;;;;;1.06;79.64;99007.91;4934516;28;101348;-83
2022/11/22 05:45:18;;;;;;;57.07;24.40;;;;;;;0.96;79.62;98998.59;4920727;28;96778;-84
2022/11/22 05:47:44;;;;;;;49.83;23.83;;;;;;;1.19;79.70;99026.63;4921786;28;96841;-84
2022/11/22 05:50:10;;;;;;;56.93;24.63;;;;;;;1.27;79.38;99036.84;4934065;28;101704;-85
2022/11/22 05:52:35;;;;;;;49.50;24.17;;;;;;;1.15;79.40;99017.22;4934036;28;98000;-84
2022/11/22 05:55:01;;;;;;;50.83;25.07;;;;;;;1.25;80.14;99025.66;4915391;28;97271;-85
2022/11/22 05:57:27;;;;;;;55.63;23.43;;;;;;;1.30;79.34;99039.38;4952061;28;97609;-85
2022/11/22 05:59:53;;;;;;;47.30;24.13;;;;;;;1.15;79.44;99014.66;4938985;28;100337;-85
2022/11/22 06:02:19;;;;;;;42.27;22.03;;;;;;;1.30;79.55;99029.88;4913484;28;100020;-85
2022/11/22 06:04:44;;;;;;;39.97;21.90;;;;;;;1.31;79.10;99043.69;4911467;28;96807;-85
2022/11/22 06:07:10;;;;;;;45.57;22.27;;;;;;;1.27;78.95;99029.09;4931770;28;97593;-83
2022/11/22 06:09:35;;;;;;;46.80;22.83;;;;;;;1.36;79.49;99058.22;4949785;28;97843;-83
2022/11/22 06:12:01;;;;;;;46.67;22.17;;;;;;;1.28;79.06;99044.59;4929904;28;101557;-85
2022/11/22 06:14:26;;;;;;;45.60;21.10;;;;;;;0.97;79.63;99000.28;4932153;28;97264;-86
2022/11/22 06:16:52;;;;;;;42.40;22.73;;;;;;;1.27;78.84;99037.69;4917673;28;97128;-85
2022/11/22 06:19:17;;;;;;;58.60;23.53;;;;;;;1.15;79.20;99011.22;4934026;28;101093;-86
2022/11/22 06:21:43;;;;;;;41.70;21.47;;;;;;;1.40;78.95;99045.25;4933223;28;100438;-82
2022/11/22 06:24:09;;;;;;;49.17;22.33;;;;;;;1.42;79.45;99051.25;4910940;28;97354;-82
2022/11/22 06:26:34;;;;;;;51.73;20.97;;;;;;;1.25;79.04;99036.00;4932967;28;97362;-86
2022/11/22 06:29:00;;;;;;;45.93;20.33;;;;;;;1.24;79.46;99047.25;4932286;28;98487;-86
2022/11/22 06:31:26;;;;;;;47.93;22.03;;;;;;;1.31;79.53;99052.28;4933717;28;101810;-87
2022/11/22 06:33:53;;;;;;;41.27;21.33;;;;;;;1.21;79.95;99044.72;4932681;28;96801;-88
2022/11/22 06:36:22;;;;;;;45.10;22.93;;;;;;;1.17;80.15;99032.72;4935858;28;96885;-87
2022/11/22 06:38:48;;;;;;;40.63;21.30;;;;;;;1.07;79.69;99021.66;4916144;28;101302;-87
2022/11/22 06:41:19;;;;;;;48.50;22.87;;;;;;;1.39;80.10;99064.22;4948822;28;101475;-86
2022/11/22 06:43:46;;;;;;;49.03;23.90;;;;;;;1.35;79.77;99066.88;4927925;28;97841;-86
2022/11/22 06:46:15;;;;;;;45.47;23.47;;;;;;;1.34;79.16;99092.78;4930985;28;97042;-89
2022/11/22 06:48:41;;;;;;;31.80;18.10;;;;;;;1.19;79.40;99083.50;4931828;28;100753;-91
2022/11/22 06:51:10;;;;;;;40.10;19.70;;;;;;;1.27;78.29;99096.31;4915696;28;100031;-85
2022/11/22 06:53:36;;;;;;;44.00;21.93;;;;;;;1.29;79.03;99092.84;4934495;28;97797;-92
2022/11/22 06:56:07;;;;;;;41.07;21.60;;;;;;;1.26;78.85;99092.88;4925717;28;96988;-91
2022/11/22 06:58:33;;;;;;;42.40;20.80;;;;;;;0.93;79.29;99057.19;4920074;28;100424;-91
2022/11/22 07:01:07;;;;;;;47.73;22.60;;;;;;;1.10;80.00;99125.84;4934455;28;99975;-93
2022/11/22 07:03:37;;;;;;;59.27;25.10;;;;;;;1.20;79.72;99120.56;4940091;28;96912;-92
2022/11/22 07:06:03;;;;;;;54.77;24.30;;;;;;;0.99;79.70;99090.69;4920330;28;96874;-92
2022/11/22 07:08:29;;;;;;;48.43;23.93;;;;;;;1.25;79.50;99123.91;4946303;28;99122;-91
2022/11/22 07:10:54;;;;;;;45.07;22.03;;;;;;;1.07;79.90;99117.28;4937157;28;101222;-88
2022/11/22 07:13:20;;;;;;;48.43;22.53;;;;;;;1.12;80.14;99102.59;4937329;28;97399;-92
2022/11/22 07:15:55;;;;;;;43.20;21.70;;;;;;;1.15;80.80;99101.69;4927668;28;97119;-92
2022/11/22 07:18:22;;;;;;;39.90;20.00;;;;;;;1.11;80.69;99082.78;4943106;28;100642;-93
2022/11/22 07:20:47;;;;;;;38.63;19.90;;;;;;;1.13;80.94;99078.44;4933769;28;98343;-92
2022/11/22 07:23:14;;;;;;;44.80;22.37;;;;;;;1.21;80.49;99070.56;4921684;28;97273;-88
2022/11/22 07:25:46;;;;;;;38.90;21.43;;;;;;;0.99;80.30;99031.25;4939508;28;96813;-87
2022/11/22 07:28:12;;;;;;;38.10;19.55;;;;;;;1.16;80.61;99047.34;4903678;28;100137;-87
2022/11/22 07:30:38;;;;;;;40.20;21.33;;;;;;;1.31;80.89;99072.97;4919697;28;100972;-86
2022/11/22 07:33:04;;;;;;;45.60;24.07;;;;;;;1.29;80.89;99058.38;4933467;28;97193;-87
2022/11/22 07:35:29;;;;;;;40.97;23.27;;;;;;;1.39;80.99;99067.66;4936734;28;97364;-87
2022/11/22 07:37:55;;;;;;;48.10;25.40;;;;;;;1.43;80.48;99045.22;4921967;28;100718;-90
2022/11/22 07:40:20;;;;;;;54.40;24.57;;;;;;;1.39;80.06;99031.47;4919997;28;101627;-86
2022/11/22 07:42:46;;;;;;;50.47;24.50;;;;;;;1.28;80.37;99030.78;4951983;28;97168;-82
2022/11/22 07:45:11;;;;;;;63.40;26.77;;;;;;;1.53;81.03;99072.63;4935525;28;97056;-85
2022/11/22 07:47:37;;;;;;;53.60;27.40;;;;;;;1.48;79.74;99049.41;4926230;28;101327;-90
2022/11/22 07:50:03;;;;;;;63.13;28.77;;;;;;;1.59;80.33;99069.91;4918971;28;100694;-84
2022/11/22 07:52:29;;;;;;;65.30;29.33;;;;;;;1.69;79.91;99062.88;4919504;28;97162;-83
2022/11/22 07:54:54;;;;;;;70.53;31.60;;;;;;;1.64;80.93;99065.53;4950747;28;97248;-87
2022/11/22 07:57:20;;;;;;;61.00;28.53;;;;;;;1.53;80.91;99045.00;4919701;28;101524;-86
2022/11/22 07:59:45;;;;;;;58.37;28.57;;;;;;;1.52;80.91;99038.13;4920792;28;101178;-87
2022/11/22 08:02:11;;;;;;;59.60;29.40;;;;;;;1.59;80.95;99052.66;4919388;28;96912;-87
2022/11/22 08:04:36;;;;;;;65.53;30.37;;;;;;;1.61;81.10;99046.63;4927153;28;97421;-88
2022/11/22 08:07:02;;;;;;;79.77;32.53;;;;;;;1.63;80.44;99024.13;4925560;28;101442;-88
2022/11/22 08:09:28;;;;;;;60.33;29.67;;;;;;;1.77;80.54;99050.63;4941534;28;97325;-89
2022/11/22 08:11:53;;;;;;;66.07;29.63;;;;;;;1.74;81.05;99045.50;4942791;28;97195;-83
2022/11/22 08:14:19;;;;;;;61.50;28.93;;;;;;;1.64;80.93;99015.53;4923055;28;97285;-87
2022/11/22 08:16:44;;;;;;;68.63;29.77;;;;;;;1.79;80.75;99051.44;4941551;28;101120;-85
2022/11/22 08:19:14;;;;;;;61.30;28.20;;;;;;;1.50;81.08;99001.09;4955567;28;97946;-86
2022/11/22 08:21:40;;;;;;;63.83;29.03;;;;;;;1.79;81.08;99036.78;4947544;28;96752;-85
2022/11/22 08:24:05;;;;;;;55.93;27.00;;;;;;;1.81;80.58;99037.59;4939048;28;97155;-83
2022/11/22 08:26:32;;;;;;;60.43;29.73;;;;;;;1.79;80.44;99030.75;4938783;28;101805;-82
2022/11/22 08:28:58;;;;;;;68.33;26.60;;;;;;;1.80;81.32;99037.63;4943651;28;97615;-84
2022/11/22 08:31:25;;;;;;;56.40;26.90;;;;;;;1.78;81.55;99039.41;4939373;28;97143;-83
2022/11/22 08:33:52;;;;;;;54.83;27.83;;;;;;;1.86;81.01;99047.00;4954200;28;97108;-82
2022/11/22 08:36:17;;;;;;;58.07;29.13;;;;;;;1.90;80.89;99053.84;4923879;28;100868;-85
2022/11/22 08:38:43;;;;;;;52.83;26.90;;;;;;;1.91;81.16;99058.97;4941448;28;97809;-82
2022/11/22 08:41:09;;;;;;;51.57;26.13;;;;;;;1.88;80.51;99035.75;4934588;28;96850;-82
2022/11/22 08:43:35;;;;;;;47.93;25.57;;;;;;;1.98;80.24;99049.38;4935115;28;96807;-82
2022/11/22 08:46:00;;;;;;;50.00;24.07;;;;;;;1.93;79.94;99059.81;4937697;28;101459;-82
2022/11/22 08:48:27;;;;;;;42.73;24.63;;;;;;;1.75;80.48;99048.06;4923362;28;101311;-82
2022/11/22 08:50:59;;;;;;;47.00;24.20;;;;;;;1.88;80.04;99063.38;4934701;28;96897;-82
2022/11/22 08:53:25;;;;;;;47.60;24.58;;;;;;;1.95;79.87;99075.28;4934792;28;97757;-83
2022/11/22 08:55:51;;;;;;;48.37;23.67;;;;;;;1.86;79.57;99055.63;4919351;28;100694;-84
2022/11/22 08:58:17;;;;;;;44.77;24.43;;;;;;;1.90;79.52;99061.63;4922578;28;102032;-82
2022/11/22 09:00:43;;;;;;;49.33;25.83;;;;;;;1.93;79.76;99069.31;4958396;28;97876;-82
2022/11/22 09:03:08;;;;;;;53.40;25.17;;;;;;;1.96;80.17;99064.94;4933362;28;96816;-82
2022/11/22 09:05:34;;;;;;;56.13;27.40;;;;;;;1.95;79.64;99063.22;4940644;28;101379;-82
2022/11/22 09:07:59;;;;;;;52.47;26.50;;;;;;;1.85;80.11;99051.34;4934524;28;101435;-86
2022/11/22 09:10:25;;;;;;;52.33;25.10;;;;;;;1.94;80.16;99079.63;4919783;28;97107;-81
2022/11/22 09:12:50;;;;;;;51.43;27.57;;;;;;;2.01;79.90;99077.78;4920066;28;97291;-82
2022/11/22 09:15:16;;;;;;;55.70;27.27;;;;;;;2.03;80.07;99079.44;4932067;28;101330;-81
2022/11/22 09:17:42;;;;;;;54.63;27.13;;;;;;;1.99;79.73;99087.31;4923689;28;101079;-89
2022/11/22 09:20:08;;;;;;;51.63;28.10;;;;;;;2.02;80.62;99095.88;4926673;28;96672;-90
2022/11/22 09:22:34;;;;;;;55.27;27.37;;;;;;;1.97;79.79;99066.63;4936467;28;97504;-81
2022/11/22 09:25:00;;;;;;;62.10;28.93;;;;;;;2.02;79.88;99066.53;4933343;28;97841;-83
2022/11/22 09:27:25;;;;;;;57.00;30.97;;;;;;;2.10;79.70;99069.00;4934667;28;97964;-81
2022/11/22 09:29:51;;;;;;;60.07;29.83;;;;;;;2.12;79.48;99070.66;4918372;28;97046;-81
2022/11/22 09:32:16;;;;;;;62.77;31.90;;;;;;;2.10;79.98;99059.50;4906843;28;1252998;-82
2022/11/22 09:34:42;;;;;;;59.03;30.80;;;;;;;2.23;79.36;99060.94;4911927;28;101707;-81
2022/11/22 09:37:07;;;;;;;61.67;31.63;;;;;;;2.06;79.09;99046.63;4934652;28;100971;-82
2022/11/22 09:39:33;;;;;;;64.00;31.37;;;;;;;2.23;78.85;99055.75;4933528;28;96927;-81
2022/11/22 09:42:21;;;;;;;64.27;32.03;;;;;;;2.21;78.90;99061.84;4922558;28;97206;-82
2022/11/22 09:45:21;;;;;;;69.90;34.03;;;;;;;2.17;78.92;99065.38;4948023;28;97791;-82
2022/11/22 09:48:02;;;;;;;72.33;34.90;;;;;;;2.17;79.56;99068.81;4963930;28;98404;-82
2022/11/22 09:50:55;;;;;;;67.00;33.33;;;;;;;2.23;79.09;99068.69;4955965;28;97187;-82
2022/11/22 09:53:36;;;;;;;66.97;33.83;;;;;;;2.40;77.74;99070.94;4929972;28;97000;-82
2022/11/22 09:56:04;;;;;;;66.20;31.73;;;;;;;2.33;78.26;99066.81;4931629;28;101873;-84
2022/11/22 09:58:30;;;;;;;70.60;36.27;;;;;;;2.34;77.98;99062.47;4930359;28;101499;-81
2022/11/22 10:01:08;;;;;;;71.83;32.97;;;;;;;2.18;78.28;99064.50;4946336;28;96831;-81
2022/11/22 10:03:36;;;;;;;70.13;32.37;;;;;;;2.26;77.67;99063.47;4932971;28;96832;-82
2022/11/22 10:06:06;;;;;;;66.07;33.20;;;;;;;2.21;78.84;99059.25;4934332;28;101657;-82
2022/11/22 10:08:51;;;;;;;65.23;32.07;;;;;;;2.17;78.14;99045.53;4921190;28;101104;-87
2022/11/22 10:11:23;;;;;;;62.40;31.87;;;;;;;2.19;78.55;99053.28;4935941;28;97100;-87
2022/11/22 10:13:52;;;;;;;65.87;31.77;;;;;;;2.13;78.44;99043.03;4954179;28;96817;-87
2022/11/22 10:16:31;;;;;;;62.87;31.93;;;;;;;2.21;78.18;99054.97;4938297;28;101495;-88
2022/11/22 10:19:08;;;;;;;65.30;31.70;;;;;;;2.14;78.05;99029.22;4927700;28;101176;-88
2022/11/22 10:21:33;;;;;;;60.87;31.20;;;;;;;2.07;78.34;99018.13;4927317;28;97787;-88
2022/11/22 10:23:59;;;;;;;62.97;30.50;;;;;;;2.26;78.11;99047.06;4945481;28;97321;-89
2022/11/22 10:26:35;;;;;;;64.17;32.30;;;;;;;2.42;77.64;99052.81;4939952;28;98067;-87
2022/11/22 10:29:25;;;;;;;58.83;32.30;;;;;;;2.33;77.93;99048.66;4941790;28;98939;-88
2022/11/22 10:31:53;;;;;;;61.97;32.03;;;;;;;2.36;77.42;99055.53;4937464;28;97162;-87
2022/11/22 10:34:44;;;;;;;60.13;32.10;;;;;;;2.33;78.45;99055.56;4934131;28;97306;-87
2022/11/22 10:37:24;;;;;;;58.93;30.80;;;;;;;2.41;77.71;99058.84;4933080;28;101639;-87
2022/11/22 10:40:23;;;;;;;66.60;32.13;;;;;;;2.34;78.14;99052.09;4937276;28;100878;-88
2022/11/22 10:43:24;;;;;;;66.87;32.90;;;;;;;2.37;77.42;99045.13;4922961;28;97485;-89
2022/11/22 10:46:19;;;;;;;68.40;34.20;;;;;;;2.54;77.00;99036.16;4931647;28;97100;-89
2022/11/22 10:48:55;;;;;;;69.13;34.53;;;;;;;2.43;77.07;99044.97;4933809;28;100485;-88
2022/11/22 10:51:51;;;;;;;72.67;34.90;;;;;;;2.29;78.01;99049.59;4920681;28;101497;-87
2022/11/22 10:54:41;;;;;;;65.77;32.07;;;;;;;2.28;78.42;99050.50;4923867;28;97000;-89
2022/11/22 10:57:06;;;;;;;66.30;33.63;;;;;;;2.34;78.37;99044.34;4928510;28;96782;-90
2022/11/22 10:59:54;;;;;;;72.23;33.90;;;;;;;2.23;78.03;99009.16;4935016;28;102592;-90
2022/11/22 11:02:43;;;;;;;69.00;34.13;;;;;;;2.51;77.63;99041.41;4930572;28;101227;-89
2022/11/22 11:05:12;;;;;;;68.13;34.33;;;;;;;2.31;77.79;99018.50;4935978;28;97844;-90
2022/11/22 11:07:43;;;;;;;69.37;34.80;;;;;;;2.49;77.92;99049.19;4936564;28;97599;-89
2022/11/22 11:10:16;;;;;;;69.20;34.90;;;;;;;2.62;77.06;99048.03;4924924;28;100280;-89
2022/11/22 11:12:55;;;;;;;74.30;37.93;;;;;;;2.78;76.59;99053.72;4908522;28;100413;-88
2022/11/22 11:15:26;;;;;;;74.13;35.90;;;;;;;2.58;77.15;99051.56;4920379;28;97550;-89
2022/11/22 11:18:00;;;;;;;67.10;34.03;;;;;;;2.58;77.49;99050.72;4920229;28;96818;-84
2022/11/22 11:20:28;;;;;;;68.03;36.97;;;;;;;2.65;77.54;99042.78;4947927;28;97982;-84
2022/11/22 11:22:53;;;;;;;65.53;34.80;;;;;;;2.44;77.34;99009.56;4936149;28;101828;-84
2022/11/22 11:25:28;;;;;;;66.10;34.70;;;;;;;2.59;77.45;99036.88;4921493;28;97697;-82
2022/11/22 11:27:56;;;;;;;66.77;35.70;;;;;;;2.77;77.18;99025.28;4943206;28;96882;-81
2022/11/22 11:30:21;;;;;;;58.23;30.83;;;;;;;2.72;77.03;99023.63;4919999;28;101218;-86
2022/11/22 11:32:54;;;;;;;58.60;32.33;;;;;;;2.72;76.95;99028.78;4924998;28;101249;-85
2022/11/22 11:35:23;;;;;;;63.20;33.73;;;;;;;2.80;76.80;99022.59;4919381;28;96903;-85
2022/11/22 11:37:48;;;;;;;76.60;41.10;;;;;;;3.07;75.60;99028.88;4936477;28;97277;-89
2022/11/22 11:40:31;;;;;;;63.80;34.83;;;;;;;2.84;76.10;99026.81;4955876;28;98745;-87